Time;durP1;ratioP1;P1;durP2;ratioP2;P2;SDS_P1;SDS_P2;PMS_P1;PMS_P2;Temp;Humidity;BMP_temperature;BMP_pressure;BME280_temperature;BME280_humidity;BME280_pressure;Samples;Min_cycle;Max_cycle;Signal;HPM_P1;HPM_P2
2022/09/25 00:01:09;;;;;;;10.27;2.28;;;;;;;11.56;100.00;101362.19;5022588;28;20315;-70
2022/09/25 00:03:34;;;;;;;11.40;2.80;;;;;;;11.51;100.00;101369.09;5023060;28;20365;-70
2022/09/25 00:06:05;;;;;;;11.63;2.92;;;;;;;11.52;100.00;101369.94;5030613;28;20036;-70
2022/09/25 00:08:32;;;;;;;9.55;2.45;;;;;;;11.50;100.00;101370.16;5030796;28;20025;-70
2022/09/25 00:10:57;;;;;;;12.48;2.63;;;;;;;11.46;100.00;101366.22;5023251;28;20465;-70
2022/09/25 00:13:22;;;;;;;9.57;2.50;;;;;;;11.45;100.00;101372.69;5028807;28;20044;-70
2022/09/25 00:15:55;;;;;;;11.95;2.22;;;;;;;11.42;100.00;101378.53;5031731;28;20030;-70
2022/09/25 00:21:07;;;;;;;12.00;2.17;;;;;;;11.39;100.00;101378.97;5034367;28;20138;-70
2022/09/25 00:23:33;;;;;;;10.25;2.50;;;;;;;11.38;100.00;101381.91;5033043;28;20037;-70
2022/09/25 00:25:59;;;;;;;10.60;2.83;;;;;;;11.38;100.00;101382.72;5033548;28;20018;-70
2022/09/25 00:28:28;;;;;;;11.00;2.55;;;;;;;11.40;100.00;101385.22;5030660;28;20176;-70
2022/09/25 00:30:53;;;;;;;10.30;2.42;;;;;;;11.35;100.00;101378.59;5015253;28;20084;-70
2022/09/25 00:33:18;;;;;;;8.48;2.38;;;;;;;11.35;100.00;101375.88;5033505;28;20025;-70
2022/09/25 00:35:44;;;;;;;9.13;2.35;;;;;;;11.32;100.00;101379.03;5035656;28;20052;-70
2022/09/25 00:38:09;;;;;;;8.98;2.50;;;;;;;11.36;100.00;101382.13;5032827;28;20029;-70
2022/09/25 00:40:34;;;;;;;11.38;2.53;;;;;;;11.30;100.00;101388.41;5019895;28;20362;-70
2022/09/25 00:43:00;;;;;;;9.48;2.70;;;;;;;11.26;100.00;101384.47;5022754;28;20038;-70
2022/09/25 00:45:25;;;;;;;12.35;2.67;;;;;;;11.25;100.00;101378.22;5027214;28;20057;-70
2022/09/25 00:48:14;;;;;;;12.35;3.03;;;;;;;11.27;100.00;101367.97;5034545;28;20475;-70
2022/09/25 00:50:51;;;;;;;9.73;2.70;;;;;;;11.24;100.00;101373.84;5027924;28;20021;-70
2022/09/25 00:53:24;;;;;;;10.63;2.78;;;;;;;11.22;100.00;101383.22;5034348;28;20021;-70
2022/09/25 00:55:50;;;;;;;9.52;2.60;;;;;;;11.21;100.00;101376.16;5029093;28;20039;-70
2022/09/25 00:58:20;;;;;;;9.40;2.58;;;;;;;11.22;100.00;101383.22;5019454;28;20044;-70
2022/09/25 01:00:45;;;;;;;12.27;2.65;;;;;;;11.20;100.00;101385.31;5012308;28;20275;-70
2022/09/25 01:03:10;;;;;;;8.52;2.22;;;;;;;11.23;100.00;101385.75;5020930;28;20069;-70
2022/09/25 01:05:40;;;;;;;11.35;2.60;;;;;;;11.18;100.00;101389.06;5032073;28;20105;-70
2022/09/25 01:08:09;;;;;;;9.77;2.78;;;;;;;11.16;100.00;101382.22;5023494;28;20047;-70
2022/09/25 01:10:35;;;;;;;8.00;2.30;;;;;;;11.10;100.00;101386.63;5015000;28;20061;-70
2022/09/25 01:13:01;;;;;;;11.75;2.60;;;;;;;11.07;100.00;101388.94;5030800;28;20064;-69
2022/09/25 01:15:48;;;;;;;10.95;2.33;;;;;;;11.09;100.00;101389.53;5030023;28;20061;-70
2022/09/25 01:18:27;;;;;;;7.38;2.58;;;;;;;11.09;100.00;101384.94;5014518;28;20037;-70
2022/09/25 01:21:20;;;;;;;11.48;2.35;;;;;;;11.12;100.00;101387.22;5014848;28;20053;-70
2022/09/25 01:24:08;;;;;;;9.40;2.53;;;;;;;11.10;100.00;101389.31;5031597;28;20033;-70
2022/09/25 01:26:54;;;;;;;12.27;2.53;;;;;;;11.04;100.00;101386.66;5029910;28;20109;-70
2022/09/25 01:29:46;;;;;;;12.80;2.55;;;;;;;11.05;100.00;101391.88;5014399;28;20449;-70
2022/09/25 01:32:26;;;;;;;7.32;2.60;;;;;;;10.97;100.00;101392.91;5025650;28;20052;-70
2022/09/25 01:35:00;;;;;;;8.45;2.88;;;;;;;10.93;100.00;101385.44;5033943;28;20036;-70
2022/09/25 01:37:52;;;;;;;7.47;2.40;;;;;;;10.92;100.00;101400.03;5032668;28;20029;-70
2022/09/25 01:40:23;;;;;;;10.90;2.92;;;;;;;10.88;100.00;101393.38;5033605;28;20025;-70
2022/09/25 01:43:00;;;;;;;8.63;2.10;;;;;;;10.85;100.00;101394.63;5032613;28;20407;-70
2022/09/25 01:45:35;;;;;;;9.27;3.05;;;;;;;10.81;100.00;101398.81;5028895;28;20026;-70
2022/09/25 01:48:04;;;;;;;8.68;2.17;;;;;;;10.74;100.00;101401.53;5033174;28;20058;-70
2022/09/25 01:50:37;;;;;;;9.10;2.35;;;;;;;10.75;100.00;101400.50;5027547;28;20392;-70
2022/09/25 01:53:08;;;;;;;8.65;2.40;;;;;;;10.73;100.00;101405.28;5028478;28;20029;-70
2022/09/25 01:55:40;;;;;;;11.43;2.53;;;;;;;10.70;100.00;101403.00;5015936;28;20053;-70
2022/09/25 01:58:38;;;;;;;13.00;2.60;;;;;;;10.70;100.00;101404.88;5023291;28;20121;-70
2022/09/25 02:01:27;;;;;;;11.00;2.65;;;;;;;10.68;100.00;101404.28;5027115;28;20095;-70
2022/09/25 02:03:59;;;;;;;11.07;2.50;;;;;;;10.60;100.00;101402.63;5027849;28;20036;-70
2022/09/25 02:06:25;;;;;;;11.13;2.50;;;;;;;10.59;100.00;101398.25;5032404;28;20037;-70
2022/09/25 02:09:00;;;;;;;11.45;2.50;;;;;;;10.61;100.00;101399.72;5028332;28;20507;-70
2022/09/25 02:11:30;;;;;;;9.48;2.33;;;;;;;10.61;100.00;101393.44;5027958;28;20053;-70
2022/09/25 02:14:04;;;;;;;7.95;2.47;;;;;;;10.54;100.00;101398.06;5032130;28;20409;-70
2022/09/25 02:16:36;;;;;;;8.68;2.60;;;;;;;10.55;100.00;101391.59;5027141;28;20057;-70
2022/09/25 02:21:57;;;;;;;10.63;2.22;;;;;;;10.53;100.00;101393.69;5013711;28;20049;-70
2022/09/25 02:24:36;;;;;;;8.98;2.70;;;;;;;10.53;100.00;101388.28;5033575;28;20030;-70
2022/09/25 02:27:01;;;;;;;7.18;2.20;;;;;;;10.51;100.00;101393.03;5031505;28;20021;-70
2022/09/25 02:29:28;;;;;;;7.82;2.40;;;;;;;10.51;100.00;101387.63;5030756;28;20023;-70
2022/09/25 02:32:01;;;;;;;8.32;2.50;;;;;;;10.45;100.00;101382.03;5022098;28;20495;-70
2022/09/25 02:34:26;;;;;;;9.68;2.40;;;;;;;10.40;100.00;101394.53;5031527;28;20431;-70
2022/09/25 02:36:52;;;;;;;8.57;2.28;;;;;;;10.36;100.00;101396.84;5031686;28;20033;-70
2022/09/25 02:39:21;;;;;;;7.32;2.55;;;;;;;10.36;100.00;101398.72;5031352;28;20022;-70
2022/09/25 02:42:24;;;;;;;9.13;2.60;;;;;;;10.37;100.00;101403.06;5027849;28;20477;-70
2022/09/25 02:44:49;;;;;;;11.05;2.42;;;;;;;10.29;100.00;101396.78;5026091;28;20496;-70
2022/09/25 02:47:34;;;;;;;7.87;2.50;;;;;;;10.26;100.00;101401.81;5025918;28;20141;-70
2022/09/25 02:50:24;;;;;;;6.95;2.30;;;;;;;10.16;100.00;101396.81;5016497;28;20295;-70
2022/09/25 02:53:08;;;;;;;11.00;2.38;;;;;;;10.11;100.00;101399.31;5035715;28;20021;-70
2022/09/25 02:55:47;;;;;;;8.48;2.47;;;;;;;10.15;100.00;101391.63;5052542;28;20024;-70
2022/09/25 02:58:18;;;;;;;12.77;2.80;;;;;;;10.06;100.00;101391.00;5031506;28;20024;-69
2022/09/25 03:00:46;;;;;;;13.13;2.42;;;;;;;10.07;100.00;101382.69;5020259;28;20039;-70
2022/09/25 03:03:16;;;;;;;6.93;2.30;;;;;;;10.09;100.00;101380.59;5032870;28;20087;-70
2022/09/25 03:05:41;;;;;;;9.65;2.30;;;;;;;10.04;100.00;101377.69;5023354;28;20454;-70
2022/09/25 03:10:52;;;;;;;6.97;2.70;;;;;;;10.00;100.00;101381.84;5013094;28;20107;-70
2022/09/25 03:13:30;;;;;;;5.68;1.92;;;;;;;9.96;100.00;101380.59;5011744;28;20025;-70
2022/09/25 03:15:58;;;;;;;7.05;2.58;;;;;;;9.88;100.00;101384.31;5018238;28;20028;-70
2022/09/25 03:18:25;;;;;;;7.55;2.40;;;;;;;9.92;100.00;101380.19;5023469;28;20044;-70
2022/09/25 03:20:51;;;;;;;6.32;2.33;;;;;;;9.91;100.00;101372.28;5024415;28;20044;-70
2022/09/25 03:23:17;;;;;;;5.22;2.42;;;;;;;9.84;100.00;101383.06;5010910;28;20060;-70
2022/09/25 03:25:42;;;;;;;9.27;2.78;;;;;;;9.82;100.00;101389.75;5012901;28;20105;-69
2022/09/25 03:28:09;;;;;;;9.40;3.00;;;;;;;9.76;100.00;101384.09;5029679;28;20080;-70
2022/09/25 03:30:37;;;;;;;11.48;4.00;;;;;;;9.72;100.00;101388.28;5012725;28;20080;-70
2022/09/25 03:33:03;;;;;;;12.75;4.15;;;;;;;9.66;100.00;101389.09;5026034;28;20037;-70
2022/09/25 03:35:28;;;;;;;9.95;3.65;;;;;;;9.63;100.00;101386.81;5030387;28;20108;-70
2022/09/25 03:37:54;;;;;;;12.77;4.25;;;;;;;9.57;100.00;101393.88;5031678;28;20104;-70
2022/09/25 03:40:20;;;;;;;11.57;4.35;;;;;;;9.57;100.00;101388.47;5032040;28;20087;-70
2022/09/25 03:42:46;;;;;;;11.82;4.70;;;;;;;9.58;100.00;101391.97;5023890;28;20057;-69
2022/09/25 03:45:11;;;;;;;12.07;4.50;;;;;;;9.55;100.00;101378.88;5012530;28;20029;-70
2022/09/25 03:47:37;;;;;;;9.10;4.82;;;;;;;9.54;100.00;101380.78;5012501;28;20032;-70
2022/09/25 03:50:02;;;;;;;12.27;4.72;;;;;;;9.51;100.00;101389.28;5018601;28;20466;-70
2022/09/25 03:52:28;;;;;;;10.48;5.07;;;;;;;9.50;100.00;101386.78;5012597;28;20029;-69
2022/09/25 03:54:53;;;;;;;14.80;5.18;;;;;;;9.50;100.00;101384.91;5031400;28;20048;-70
2022/09/25 03:57:18;;;;;;;10.88;5.10;;;;;;;9.52;100.00;101388.22;5016271;28;20038;-69
2022/09/25 03:59:43;;;;;;;10.07;4.65;;;;;;;9.52;100.00;101385.53;5016602;28;20044;-70
2022/09/25 04:02:09;;;;;;;10.77;4.97;;;;;;;9.55;100.00;101395.09;5013520;28;20405;-70
2022/09/25 04:04:36;;;;;;;13.95;5.47;;;;;;;9.49;100.00;101385.13;5016263;28;20515;-70
2022/09/25 04:07:02;;;;;;;9.88;4.88;;;;;;;9.50;100.00;101392.19;5015981;28;20376;-70
2022/09/25 04:09:27;;;;;;;13.88;6.15;;;;;;;9.46;100.00;101385.53;5016030;28;20026;-70
2022/09/25 04:11:54;;;;;;;11.57;6.00;;;;;;;9.42;100.00;101386.97;5016211;28;20365;-70
2022/09/25 04:14:20;;;;;;;12.60;6.70;;;;;;;9.34;100.00;101391.50;5016251;28;20463;-69
2022/09/25 04:16:45;;;;;;;12.13;6.82;;;;;;;9.29;100.00;101385.91;5016337;28;20117;-70
2022/09/25 04:19:11;;;;;;;9.70;6.43;;;;;;;9.24;100.00;101374.88;5016168;28;20030;-70
2022/09/25 04:21:36;;;;;;;13.45;6.80;;;;;;;9.23;100.00;101386.72;5014575;28;20049;-70
2022/09/25 04:26:46;;;;;;;12.48;6.72;;;;;;;9.28;100.00;101378.00;5015883;28;20385;-70
2022/09/25 04:29:14;;;;;;;9.75;6.15;;;;;;;9.27;100.00;101381.72;5027103;28;20030;-70
2022/09/25 04:31:39;;;;;;;13.60;6.57;;;;;;;9.28;100.00;101370.72;5034870;28;20496;-70
2022/09/25 04:34:04;;;;;;;10.73;6.40;;;;;;;9.24;100.00;101377.59;5015691;28;20109;-70
2022/09/25 04:36:30;;;;;;;11.40;6.03;;;;;;;9.16;100.00;101378.59;5015622;28;20022;-70
2022/09/25 04:38:55;;;;;;;9.70;6.28;;;;;;;9.18;100.00;101383.78;5014623;28;20040;-69
2022/09/25 04:41:20;;;;;;;9.13;5.85;;;;;;;9.15;100.00;101389.56;5015505;28;20477;-69
2022/09/25 04:43:47;;;;;;;10.68;6.50;;;;;;;9.17;100.00;101384.81;5015725;28;20430;-69
2022/09/25 04:46:12;;;;;;;12.75;7.38;;;;;;;9.10;100.00;101381.25;5015549;28;20029;-70
2022/09/25 04:48:38;;;;;;;13.00;7.70;;;;;;;9.10;100.00;101376.69;5015578;28;20030;-70
2022/09/25 04:51:05;;;;;;;11.15;7.78;;;;;;;9.12;100.00;101376.47;5015680;28;20171;-70
2022/09/25 04:53:33;;;;;;;12.32;7.80;;;;;;;9.16;100.00;101375.03;5015499;28;20025;-70
2022/09/25 04:56:06;;;;;;;12.82;7.60;;;;;;;9.17;100.00;101379.41;5015556;28;20472;-70
2022/09/25 04:58:31;;;;;;;13.75;7.75;;;;;;;9.13;100.00;101370.06;5015485;28;20068;-70
2022/09/25 05:01:04;;;;;;;9.98;6.78;;;;;;;9.09;100.00;101369.63;5012640;28;20018;-70
2022/09/25 05:03:29;;;;;;;12.60;6.93;;;;;;;9.08;100.00;101367.13;5015139;28;20026;-70
2022/09/25 05:05:54;;;;;;;10.02;6.63;;;;;;;9.08;100.00;101365.25;5014457;28;20352;-70
2022/09/25 05:08:21;;;;;;;11.73;7.07;;;;;;;9.02;100.00;101377.69;5013780;28;20057;-70
2022/09/25 05:10:47;;;;;;;13.98;7.65;;;;;;;9.00;100.00;101368.97;5033030;28;20037;-70
2022/09/25 05:13:12;;;;;;;10.27;7.25;;;;;;;9.04;100.00;101375.66;5034507;28;20029;-70
2022/09/25 05:15:37;;;;;;;12.77;7.85;;;;;;;9.03;100.00;101368.56;5033735;28;20031;-70
2022/09/25 05:18:17;;;;;;;9.63;7.45;;;;;;;9.03;100.00;101368.56;5034818;28;20372;-70
2022/09/25 05:20:42;;;;;;;11.45;8.10;;;;;;;9.05;100.00;101365.66;5034027;28;20179;-70
2022/09/25 05:23:08;;;;;;;11.27;8.15;;;;;;;9.05;100.00;101366.50;5034134;28;20033;-70
2022/09/25 05:25:34;;;;;;;9.88;7.60;;;;;;;9.02;100.00;101374.16;5034074;28;20080;-70
2022/09/25 05:28:00;;;;;;;13.27;7.55;;;;;;;9.02;100.00;101364.19;5034127;28;20518;-70
2022/09/25 05:30:27;;;;;;;12.82;7.78;;;;;;;8.99;100.00;101359.19;5033413;28;20435;-70
2022/09/25 05:32:53;;;;;;;12.27;7.78;;;;;;;8.97;100.00;101361.28;5028552;28;20454;-70
2022/09/25 05:35:21;;;;;;;12.30;7.32;;;;;;;8.91;100.00;101361.25;5030502;28;20031;-70
2022/09/25 05:37:46;;;;;;;12.07;8.02;;;;;;;8.93;100.00;101367.28;5033455;28;20025;-70
2022/09/25 05:40:16;;;;;;;12.07;7.32;;;;;;;8.90;100.00;101360.41;5033442;28;20033;-70
2022/09/25 05:42:46;;;;;;;10.63;7.30;;;;;;;8.88;100.00;101362.50;5028698;28;20037;-70
2022/09/25 05:45:12;;;;;;;11.35;7.70;;;;;;;8.90;100.00;101365.00;5033359;28;20029;-70
2022/09/25 05:47:38;;;;;;;12.80;8.10;;;;;;;8.90;100.00;101363.13;5028286;28;20037;-70
2022/09/25 05:50:04;;;;;;;13.50;7.63;;;;;;;8.81;100.00;101375.94;5028433;28;20037;-70
2022/09/25 05:52:30;;;;;;;11.02;7.70;;;;;;;8.85;100.00;101379.09;5031883;28;20040;-70
2022/09/25 05:54:55;;;;;;;10.65;7.47;;;;;;;8.81;100.00;101375.94;5025935;28;20040;-70
2022/09/25 05:57:22;;;;;;;11.02;7.43;;;;;;;8.82;100.00;101376.78;5032920;28;20025;-70
2022/09/25 05:59:48;;;;;;;11.18;7.18;;;;;;;8.80;100.00;101386.94;5033409;28;20082;-70
2022/09/25 06:02:14;;;;;;;11.30;7.65;;;;;;;8.76;100.00;101385.69;5031064;28;20264;-70
2022/09/25 06:04:39;;;;;;;10.85;7.22;;;;;;;8.83;100.00;101387.38;5033169;28;20025;-70
2022/09/25 06:07:04;;;;;;;9.77;7.50;;;;;;;8.84;100.00;101382.81;5026498;28;20106;-70
2022/09/25 06:09:30;;;;;;;13.45;7.15;;;;;;;8.87;100.00;101388.63;5030971;28;20465;-70
2022/09/25 06:11:55;;;;;;;12.57;7.50;;;;;;;8.87;100.00;101382.41;5032218;28;20036;-70
2022/09/25 06:14:20;;;;;;;10.32;7.30;;;;;;;8.92;100.00;101384.50;5033044;28;20064;-70
2022/09/25 06:16:49;;;;;;;14.10;8.85;;;;;;;8.87;100.00;101385.09;5033307;28;20112;-70
2022/09/25 06:19:16;;;;;;;12.98;7.82;;;;;;;8.86;100.00;101383.44;5032693;28;20056;-70
2022/09/25 06:21:42;;;;;;;11.07;8.40;;;;;;;8.87;100.00;101385.94;5033238;28;20032;-70
2022/09/25 06:24:09;;;;;;;12.85;8.50;;;;;;;8.92;100.00;101390.72;5031666;28;20026;-72
2022/09/25 06:26:35;;;;;;;13.60;8.75;;;;;;;8.95;100.00;101381.41;5032037;28;20041;-71
2022/09/25 06:29:01;;;;;;;16.58;8.82;;;;;;;9.03;100.00;101386.66;5030060;28;20025;-74
2022/09/25 06:31:26;;;;;;;10.63;8.00;;;;;;;9.08;100.00;101384.16;5028944;28;20373;-69
2022/09/25 06:33:51;;;;;;;14.88;10.18;;;;;;;9.07;100.00;101387.06;5032874;28;20029;-69
2022/09/25 06:36:17;;;;;;;12.88;8.40;;;;;;;9.11;100.00;101386.47;5032589;28;20048;-70
2022/09/25 06:38:42;;;;;;;12.93;8.63;;;;;;;9.13;100.00;101392.47;5033104;28;20365;-69
2022/09/25 06:41:07;;;;;;;13.63;9.13;;;;;;;9.14;100.00;101382.53;5032708;28;20342;-72
2022/09/25 06:43:32;;;;;;;15.10;9.35;;;;;;;9.19;100.00;101388.13;5032715;28;20075;-71
2022/09/25 06:46:01;;;;;;;13.95;9.13;;;;;;;9.21;100.00;101388.78;5032812;28;20425;-70
2022/09/25 06:48:26;;;;;;;17.20;9.60;;;;;;;9.23;100.00;101386.72;5023845;28;20059;-73
2022/09/25 06:50:54;;;;;;;14.18;9.75;;;;;;;9.27;100.00;101392.53;5031427;28;20057;-74
2022/09/25 06:53:22;;;;;;;16.70;10.50;;;;;;;9.31;100.00;101391.91;5036320;28;20029;-70
2022/09/25 06:55:48;;;;;;;17.23;10.07;;;;;;;9.35;100.00;101405.88;5035453;28;20029;-70
2022/09/25 06:58:22;;;;;;;19.02;9.75;;;;;;;9.38;100.00;101398.19;5032221;28;20040;-68
2022/09/25 07:00:53;;;;;;;14.80;10.20;;;;;;;9.42;100.00;101395.06;5030592;28;20257;-69
2022/09/25 07:06:04;;;;;;;14.98;9.68;;;;;;;9.53;100.00;101398.00;5033046;28;20035;-69
2022/09/25 07:08:30;;;;;;;17.55;9.95;;;;;;;9.56;100.00;101404.88;5032343;28;20377;-69
2022/09/25 07:10:57;;;;;;;14.48;8.82;;;;;;;9.63;100.00;101403.03;5046287;28;20033;-69
2022/09/25 07:13:27;;;;;;;13.55;8.65;;;;;;;9.69;100.00;101404.06;5031903;28;20038;-69
2022/09/25 07:15:55;;;;;;;18.23;9.43;;;;;;;9.74;100.00;101405.13;5032799;28;20057;-69
2022/09/25 07:18:21;;;;;;;13.13;9.00;;;;;;;9.79;100.00;101407.19;5032697;28;20029;-69
2022/09/25 07:20:48;;;;;;;14.48;8.68;;;;;;;9.85;100.00;101400.13;5032689;28;20042;-70
2022/09/25 07:23:15;;;;;;;17.75;9.30;;;;;;;9.94;100.00;101409.72;5032710;28;20047;-69
2022/09/25 07:25:41;;;;;;;10.93;8.70;;;;;;;9.99;100.00;101406.38;5032676;28;20017;-70
2022/09/25 07:28:06;;;;;;;18.70;9.45;;;;;;;10.06;100.00;101409.94;5032270;28;20056;-70
2022/09/25 07:30:32;;;;;;;9.88;7.97;;;;;;;10.15;100.00;101410.56;5032377;28;20025;-69
2022/09/25 07:32:57;;;;;;;14.77;8.40;;;;;;;10.21;100.00;101410.53;5031576;28;20029;-69
2022/09/25 07:35:23;;;;;;;11.88;8.20;;;;;;;10.29;100.00;101412.19;5032377;28;20056;-69
2022/09/25 07:37:49;;;;;;;16.95;8.27;;;;;;;10.34;100.00;101411.59;5032581;28;20076;-70
2022/09/25 07:40:14;;;;;;;12.50;7.80;;;;;;;10.38;100.00;101416.38;5032603;28;20460;-69
2022/09/25 07:42:40;;;;;;;10.43;7.18;;;;;;;10.46;100.00;101415.31;5032358;28;20441;-69
2022/09/25 07:45:06;;;;;;;10.65;7.05;;;;;;;10.51;100.00;101417.41;5032605;28;20030;-70
2022/09/25 07:47:32;;;;;;;11.10;7.13;;;;;;;10.57;100.00;101419.28;5032299;28;20025;-69
2022/09/25 07:49:58;;;;;;;13.57;7.60;;;;;;;10.62;100.00;101414.88;5032473;28;20042;-69
2022/09/25 07:52:23;;;;;;;15.07;7.28;;;;;;;10.72;100.00;101417.16;5032283;28;20028;-70
2022/09/25 07:54:48;;;;;;;13.23;6.80;;;;;;;10.77;100.00;101409.22;5031107;28;20025;-69
2022/09/25 07:57:14;;;;;;;10.25;6.95;;;;;;;10.83;100.00;101407.56;5031715;28;20368;-69
2022/09/25 07:59:39;;;;;;;12.00;6.85;;;;;;;10.89;100.00;101404.00;5031889;28;20040;-69
2022/09/25 08:02:05;;;;;;;10.68;6.22;;;;;;;10.97;100.00;101405.63;5029808;28;20091;-69
2022/09/25 08:04:30;;;;;;;12.45;6.00;;;;;;;11.05;100.00;101404.56;5032143;28;20110;-69
2022/09/25 08:06:59;;;;;;;10.65;6.03;;;;;;;11.09;100.00;101409.31;5032082;28;20036;-69
2022/09/25 08:09:25;;;;;;;9.25;5.35;;;;;;;11.21;100.00;101406.78;5032057;28;20029;-69
2022/09/25 08:11:50;;;;;;;12.10;6.45;;;;;;;11.29;100.00;101405.69;5032223;28;20496;-68
2022/09/25 08:14:17;;;;;;;8.80;5.72;;;;;;;11.38;100.00;101407.09;5032269;28;20064;-68
2022/09/25 08:16:42;;;;;;;8.88;5.18;;;;;;;11.44;100.00;101397.28;5028475;28;20021;-69
2022/09/25 08:19:09;;;;;;;7.70;4.50;;;;;;;11.48;100.00;101396.63;5030059;28;20026;-68
2022/09/25 08:21:34;;;;;;;11.60;4.75;;;;;;;11.57;100.00;101393.69;5030920;28;20052;-68
2022/09/25 08:24:00;;;;;;;7.13;4.28;;;;;;;11.62;100.00;101404.69;5031740;28;20029;-69
2022/09/25 08:26:27;;;;;;;10.35;3.80;;;;;;;11.74;100.00;101408.34;5030148;28;20026;-68
2022/09/25 08:28:52;;;;;;;9.27;3.80;;;;;;;11.81;100.00;101402.91;5031692;28;20033;-68
2022/09/25 08:31:18;;;;;;;8.38;3.25;;;;;;;11.87;100.00;101394.69;5031695;28;20035;-68
2022/09/25 08:33:45;;;;;;;7.07;3.47;;;;;;;11.95;100.00;101396.34;5031281;28;20118;-69
2022/09/25 08:36:10;;;;;;;8.63;3.15;;;;;;;12.04;100.00;101394.19;5030371;28;20056;-68
2022/09/25 08:38:35;;;;;;;6.30;2.88;;;;;;;12.07;100.00;101401.88;5030417;28;20053;-69
2022/09/25 08:41:02;;;;;;;12.38;3.53;;;;;;;12.13;100.00;101400.19;5033574;28;20532;-69
2022/09/25 08:43:30;;;;;;;7.97;2.47;;;;;;;12.17;100.00;101402.22;5034893;28;20104;-69
2022/09/25 08:49:01;;;;;;;6.45;2.30;;;;;;;12.28;100.00;101402.56;5034797;28;20079;-70
2022/09/25 08:51:40;;;;;;;8.95;2.20;;;;;;;12.37;100.00;101406.63;5035253;28;20025;-69
2022/09/25 08:54:06;;;;;;;8.85;2.70;;;;;;;12.40;100.00;101407.00;5035143;28;20482;-69
2022/09/25 08:56:34;;;;;;;6.25;2.17;;;;;;;12.51;100.00;101410.03;5033891;28;20021;-71
2022/09/25 08:59:27;;;;;;;11.45;2.60;;;;;;;12.53;100.00;101400.63;5030658;28;20049;-69
2022/09/25 09:01:58;;;;;;;4.20;1.70;;;;;;;12.64;100.00;101409.09;5030788;28;20021;-69
2022/09/25 09:04:30;;;;;;;6.85;1.88;;;;;;;12.68;100.00;101402.13;5034753;28;20034;-69
2022/09/25 09:07:04;;;;;;;8.63;2.28;;;;;;;12.77;100.00;101398.06;5031375;28;20051;-68
2022/09/25 09:09:42;;;;;;;6.90;1.92;;;;;;;12.85;100.00;101400.50;5024055;28;20037;-71
2022/09/25 09:12:14;;;;;;;7.95;2.08;;;;;;;12.94;100.00;101396.41;5028122;28;20029;-72
2022/09/25 09:14:46;;;;;;;7.45;2.03;;;;;;;13.02;100.00;101394.44;5015004;28;20114;-68
2022/09/25 09:17:27;;;;;;;6.07;1.63;;;;;;;13.11;100.00;101396.63;5015138;28;20040;-72
2022/09/25 09:19:58;;;;;;;8.57;1.88;;;;;;;13.15;100.00;101391.56;5018223;28;20414;-68
2022/09/25 09:22:31;;;;;;;9.98;2.03;;;;;;;13.18;100.00;101393.81;5032304;28;20026;-68
2022/09/25 09:25:03;;;;;;;7.78;1.75;;;;;;;13.19;100.00;101392.75;5022841;28;20021;-69
2022/09/25 09:28:07;;;;;;;8.88;1.55;;;;;;;13.27;100.00;101391.59;5028639;28;20037;-69
2022/09/25 09:30:56;;;;;;;10.02;1.80;;;;;;;13.33;100.00;101387.13;5014127;28;20555;-68
2022/09/25 09:33:40;;;;;;;5.80;1.50;;;;;;;13.42;100.00;101392.06;5028302;28;20357;-69
2022/09/25 09:36:32;;;;;;;5.22;1.88;;;;;;;13.49;100.00;101394.69;5033504;28;20037;-69
2022/09/25 09:39:21;;;;;;;9.40;1.98;;;;;;;13.44;100.00;101394.56;5034588;28;20031;-69
2022/09/25 09:42:20;;;;;;;11.40;2.03;;;;;;;13.44;100.00;101395.38;5033883;28;20032;-69
2022/09/25 09:44:59;;;;;;;6.93;1.58;;;;;;;13.45;99.33;101396.19;5014488;28;20412;-68
2022/09/25 09:47:54;;;;;;;9.35;2.20;;;;;;;13.47;100.00;101385.94;5014216;28;20120;-69
2022/09/25 09:50:35;;;;;;;10.38;1.80;;;;;;;13.51;100.00;101380.84;5014562;28;20026;-68
2022/09/25 09:53:05;;;;;;;6.03;1.55;;;;;;;13.50;93.78;101387.34;5014616;28;20029;-68
2022/09/25 09:55:48;;;;;;;7.00;1.83;;;;;;;13.51;100.00;101383.56;5034096;28;20021;-68
2022/09/25 09:58:44;;;;;;;8.88;1.92;;;;;;;13.57;97.52;101378.06;5033979;28;20017;-68
2022/09/25 10:01:12;;;;;;;6.38;1.65;;;;;;;13.69;100.00;101379.97;5028588;28;20041;-69
2022/09/25 10:03:38;;;;;;;4.50;1.35;;;;;;;13.69;98.00;101380.78;5032283;28;20025;-68
2022/09/25 10:06:08;;;;;;;8.13;2.10;;;;;;;13.79;100.00;101377.50;5033413;28;20381;-69
2022/09/25 10:08:34;;;;;;;4.95;1.42;;;;;;;13.90;100.00;101379.41;5033803;28;20040;-68
2022/09/25 10:11:08;;;;;;;4.82;1.55;;;;;;;13.93;94.03;101378.94;5034310;28;20029;-68
2022/09/25 10:13:38;;;;;;;4.80;1.30;;;;;;;13.99;87.75;101369.84;5020099;28;20084;-69
2022/09/25 10:16:06;;;;;;;3.88;1.42;;;;;;;14.05;91.02;101373.50;5014145;28;20033;-68
2022/09/25 10:18:39;;;;;;;4.03;1.30;;;;;;;14.06;86.63;101367.00;5013740;28;20480;-68
2022/09/25 10:21:13;;;;;;;7.93;1.35;;;;;;;14.09;81.33;101373.88;5014014;28;20040;-68
2022/09/25 10:23:45;;;;;;;3.50;1.35;;;;;;;14.05;81.14;101378.13;5013225;28;20026;-68
2022/09/25 10:26:36;;;;;;;6.00;1.40;;;;;;;14.05;90.95;101368.06;5012644;28;20361;-69
2022/09/25 10:29:20;;;;;;;4.72;1.23;;;;;;;14.13;87.54;101364.16;5013842;28;20092;-68
2022/09/25 10:31:45;;;;;;;7.82;1.15;;;;;;;14.18;77.87;101370.56;5013637;28;20056;-69
2022/09/25 10:34:22;;;;;;;3.78;1.02;;;;;;;14.15;81.14;101364.78;5014082;28;20065;-68
2022/09/25 10:36:50;;;;;;;7.80;1.73;;;;;;;14.22;79.36;101367.38;5013576;28;20639;-68
2022/09/25 10:39:27;;;;;;;4.07;1.23;;;;;;;14.34;84.42;101362.75;5013855;28;20033;-68
2022/09/25 10:41:53;;;;;;;7.45;1.52;;;;;;;14.46;84.59;101368.19;5013626;28;20453;-69
2022/09/25 10:44:30;;;;;;;8.00;1.52;;;;;;;14.52;80.84;101367.22;5028494;28;20045;-67
2022/09/25 10:52:57;;;;;;;6.78;1.50;;;;;;;14.44;77.96;101370.31;5016312;28;20052;-68
2022/09/25 10:55:26;;;;;;;6.30;0.90;;;;;;;14.33;73.87;101367.38;5031995;28;20033;-68
2022/09/25 10:58:09;;;;;;;4.55;1.33;;;;;;;14.36;78.19;101364.16;5032990;28;20025;-68
2022/09/25 11:00:52;;;;;;;4.60;1.20;;;;;;;14.45;75.42;101363.81;5030859;28;20510;-67
2022/09/25 11:03:25;;;;;;;5.93;1.50;;;;;;;14.58;73.70;101360.81;5031590;28;20095;-68
2022/09/25 11:05:54;;;;;;;4.78;1.20;;;;;;;14.76;74.93;101356.34;5032404;28;20033;-67
2022/09/25 11:08:23;;;;;;;4.60;1.17;;;;;;;14.79;68.35;101358.56;5032990;28;20168;-68
2022/09/25 11:10:56;;;;;;;5.45;1.17;;;;;;;14.87;68.49;101358.19;5032680;28;20029;-69
2022/09/25 11:13:35;;;;;;;4.05;1.00;;;;;;;14.93;68.81;101357.25;5022038;28;20026;-67
2022/09/25 11:16:08;;;;;;;4.13;1.00;;;;;;;15.03;69.76;101364.78;5013158;28;20509;-68
2022/09/25 11:18:45;;;;;;;5.65;1.20;;;;;;;15.06;69.75;101367.84;5012524;28;20469;-68
2022/09/25 11:21:29;;;;;;;5.55;1.20;;;;;;;14.96;68.81;101367.66;5012554;28;20183;-68
2022/09/25 11:24:16;;;;;;;3.70;1.00;;;;;;;14.81;70.25;101361.88;5012494;28;20080;-69
2022/09/25 11:26:49;;;;;;;3.65;1.00;;;;;;;14.76;69.64;101359.88;5012907;28;20453;-68
2022/09/25 11:29:24;;;;;;;2.90;0.90;;;;;;;14.92;70.68;101355.56;5012974;28;20029;-68
2022/09/25 11:32:10;;;;;;;2.55;0.93;;;;;;;15.01;66.25;101359.56;5023347;28;20087;-68
2022/09/25 11:34:56;;;;;;;6.03;1.02;;;;;;;15.17;66.32;101352.53;5032131;28;20223;-69
2022/09/25 11:37:44;;;;;;;7.20;1.33;;;;;;;15.29;65.77;101346.19;5032612;28;20030;-68
2022/09/25 11:43:04;;;;;;;5.22;1.10;;;;;;;15.27;67.08;101346.44;5011348;28;20068;-68
2022/09/25 11:45:36;;;;;;;4.30;1.13;;;;;;;15.14;65.73;101352.19;5012749;28;20022;-67
2022/09/25 11:48:25;;;;;;;4.47;1.08;;;;;;;15.10;67.92;101343.66;5012861;28;20026;-67
2022/09/25 11:51:26;;;;;;;4.18;1.10;;;;;;;15.18;66.83;101337.00;5014307;28;20072;-68
2022/09/25 11:54:00;;;;;;;3.20;0.70;;;;;;;15.38;63.84;101333.81;5032380;28;20029;-68
2022/09/25 11:56:40;;;;;;;5.93;1.13;;;;;;;15.56;64.45;101327.31;5032129;28;20025;-67
2022/09/25 11:59:14;;;;;;;2.97;1.00;;;;;;;15.67;63.25;101329.16;5032726;28;20017;-67